Time;durP1;ratioP1;P1;durP2;ratioP2;P2;SDS_P1;SDS_P2;PMS_P1;PMS_P2;Temp;Humidity;BMP_temperature;BMP_pressure;BME280_temperature;BME280_humidity;BME280_pressure;Samples;Min_cycle;Max_cycle;Signal;HPM_P1;HPM_P2
2022/12/17 13:06:36;;;;;;;109.53;51.42;;;-0.90;99.90;;;;;;5041010;28;20647;-62
2022/12/17 13:09:13;;;;;;;122.85;58.45;;;-0.80;99.90;;;;;;5037253;28;20083;-64
2022/12/17 13:11:41;;;;;;;119.43;57.97;;;-0.90;99.90;;;;;;5014202;28;20049;-64
2022/12/17 13:14:17;;;;;;;116.03;57.42;;;-0.90;99.90;;;;;;5043862;28;20901;-63
2022/12/17 13:16:45;;;;;;;114.97;55.60;;;-1.10;99.90;;;;;;5066668;28;20371;-64
2022/12/17 13:19:39;;;;;;;119.47;57.10;;;-1.00;99.90;;;;;;5020248;28;20135;-64
2022/12/17 13:22:14;;;;;;;110.00;50.85;;;-0.30;99.90;;;;;;5036123;28;20626;-64
2022/12/17 13:24:48;;;;;;;115.25;54.17;;;-0.30;99.90;;;;;;5035613;28;20113;-63
2022/12/17 13:27:38;;;;;;;110.70;53.97;;;-0.50;99.90;;;;;;5035280;28;20041;-64
2022/12/17 13:30:16;;;;;;;117.10;56.88;;;-0.90;99.90;;;;;;5060883;28;20080;-63
2022/12/17 13:33:00;;;;;;;120.85;59.08;;;-0.50;99.90;;;;;;5018625;28;20076;-64
2022/12/17 13:35:48;;;;;;;117.55;54.30;;;-0.90;99.90;;;;;;5035751;28;20048;-64
2022/12/17 13:38:34;;;;;;;105.25;49.47;;;-0.40;99.90;;;;;;5035728;28;20084;-64
2022/12/17 13:41:09;;;;;;;108.82;52.08;;;-0.90;99.90;;;;;;5016236;28;20052;-64
2022/12/17 13:44:19;;;;;;;117.80;58.42;;;-0.40;99.90;;;;;;5064208;28;20045;-64
2022/12/17 13:46:47;;;;;;;112.05;52.50;;;-1.00;99.90;;;;;;5035489;28;20256;-64
2022/12/17 13:49:20;;;;;;;114.75;57.30;;;-0.60;99.90;;;;;;5037229;28;20048;-62
2022/12/17 13:51:47;;;;;;;103.15;50.22;;;-0.40;99.90;;;;;;5022165;28;20304;-64
2022/12/17 13:54:18;;;;;;;116.25;58.08;;;-0.90;99.90;;;;;;5041553;28;20115;-64
2022/12/17 13:56:44;;;;;;;113.85;58.45;;;-1.00;99.90;;;;;;5007212;28;20132;-64
2022/12/17 13:59:21;;;;;;;106.88;54.05;;;-0.90;99.90;;;;;;5037892;28;20045;-63
2022/12/17 14:01:50;;;;;;;117.13;58.13;;;-0.30;99.90;;;;;;5041524;28;20045;-64
2022/12/17 14:04:27;;;;;;;105.22;49.13;;;-0.30;99.90;;;;;;5041941;28;20387;-64
2022/12/17 14:07:04;;;;;;;117.75;58.13;;;-0.80;99.90;;;;;;5069435;28;20579;-63
2022/12/17 14:09:42;;;;;;;121.03;57.75;;;-1.10;99.90;;;;;;5023507;28;20051;-64
2022/12/17 14:12:24;;;;;;;116.68;55.00;;;-0.70;99.90;;;;;;5041808;28;20440;-64
2022/12/17 14:15:07;;;;;;;121.07;56.20;;;-0.40;99.90;;;;;;5038635;28;20125;-64
2022/12/17 14:17:35;;;;;;;114.27;52.87;;;-0.40;99.90;;;;;;5037188;28;20060;-64
2022/12/17 14:20:10;;;;;;;77.38;34.33;;;-1.10;99.90;;;;;;5027832;28;20128;-62
2022/12/17 14:22:39;;;;;;;116.05;53.97;;;-1.00;99.90;;;;;;5044798;28;20526;-63
2022/12/17 14:25:13;;;;;;;107.30;49.85;;;-0.90;99.90;;;;;;5045540;28;20427;-63
2022/12/17 14:27:48;;;;;;;112.10;53.33;;;-0.90;99.90;;;;;;5039284;28;20268;-62
2022/12/17 14:30:40;;;;;;;107.22;49.13;;;-0.50;99.90;;;;;;5037362;28;20120;-63
2022/12/17 14:33:26;;;;;;;106.72;52.63;;;-1.10;99.90;;;;;;5037706;28;20040;-63
2022/12/17 14:36:25;;;;;;;110.25;53.30;;;-0.60;99.90;;;;;;5039578;28;20057;-63
2022/12/17 14:38:58;;;;;;;97.97;48.25;;;-1.20;99.90;;;;;;5021351;28;20057;-64
2022/12/17 14:42:24;;;;;;;117.07;55.88;;;-1.30;99.90;;;;;;5043209;28;20124;-64
2022/12/17 14:44:21;;;;;;;117.07;55.20;;;-1.20;99.90;;;;;;5029367;28;20059;-64
2022/12/17 14:46:47;;;;;;;120.50;56.00;;;-1.40;99.90;;;;;;5036747;28;20060;-64
2022/12/17 14:49:21;;;;;;;123.82;57.13;;;-1.40;99.90;;;;;;5020582;28;20051;-64
2022/12/17 14:51:48;;;;;;;126.15;56.75;;;-1.20;99.90;;;;;;5022651;28;20440;-64
2022/12/17 14:54:27;;;;;;;129.95;61.05;;;-0.90;99.90;;;;;;5037562;28;20053;-65
2022/12/17 14:56:55;;;;;;;144.70;64.60;;;-0.70;99.90;;;;;;5038858;28;20449;-64
2022/12/17 14:59:23;;;;;;;129.73;58.83;;;-1.50;99.90;;;;;;5040153;28;20044;-64
2022/12/17 15:01:50;;;;;;;121.50;57.05;;;-1.40;99.90;;;;;;5036349;28;20048;-64
2022/12/17 15:04:16;;;;;;;128.48;59.15;;;-1.70;99.90;;;;;;5035927;28;20414;-64
2022/12/17 15:06:42;;;;;;;127.03;57.70;;;-1.70;99.90;;;;;;5021759;28;20120;-65
2022/12/17 15:09:11;;;;;;;112.25;49.28;;;-1.20;99.90;;;;;;5036655;28;20045;-63
2022/12/17 15:11:36;;;;;;;133.60;59.05;;;-1.60;99.90;;;;;;5039551;28;20045;-63
2022/12/17 15:14:02;;;;;;;109.32;46.38;;;-1.90;99.90;;;;;;5021720;28;20543;-63
2022/12/17 15:16:28;;;;;;;117.07;48.88;;;-1.10;99.90;;;;;;5020034;28;20063;-63
2022/12/17 15:18:54;;;;;;;127.22;53.97;;;-1.40;99.90;;;;;;5037856;28;20045;-64
2022/12/17 15:21:19;;;;;;;121.35;49.90;;;-1.50;99.90;;;;;;5037661;28;20061;-62
2022/12/17 15:23:46;;;;;;;104.57;43.58;;;-1.80;99.90;;;;;;5036275;28;20041;-63
2022/12/17 15:26:14;;;;;;;130.88;54.85;;;-1.20;99.90;;;;;;5039101;28;20079;-64
2022/12/17 15:28:40;;;;;;;134.35;55.03;;;-1.00;99.90;;;;;;5037932;28;20053;-63
2022/12/17 15:31:08;;;;;;;132.85;58.35;;;-1.40;99.90;;;;;;5039418;28;20433;-62
2022/12/17 15:33:34;;;;;;;142.90;58.25;;;-2.10;99.90;;;;;;5038888;28;20441;-63
2022/12/17 15:36:00;;;;;;;129.32;51.60;;;-2.10;99.90;;;;;;5021591;28;20075;-63
2022/12/17 15:38:25;;;;;;;142.73;57.17;;;-1.90;99.90;;;;;;5041371;28;20794;-64
2022/12/17 15:40:51;;;;;;;146.50;58.67;;;-2.00;99.90;;;;;;5021771;28;20572;-64
2022/12/17 15:43:17;;;;;;;139.43;56.13;;;-1.00;99.90;;;;;;5039425;28;20585;-64
2022/12/17 15:45:45;;;;;;;128.88;51.70;;;-1.80;99.90;;;;;;5039679;28;20120;-63
2022/12/17 15:48:13;;;;;;;120.88;48.88;;;-1.10;99.90;;;;;;5037609;28;20309;-63
2022/12/17 15:50:39;;;;;;;139.10;55.55;;;-2.10;99.90;;;;;;5020405;28;20041;-62
2022/12/17 15:53:05;;;;;;;139.15;59.90;;;-1.90;99.90;;;;;;5044869;28;20043;-64
2022/12/17 15:55:31;;;;;;;123.07;49.03;;;-1.30;99.90;;;;;;5044624;28;20156;-64
2022/12/17 15:57:57;;;;;;;126.10;49.03;;;-1.20;99.90;;;;;;5042898;28;20041;-61
2022/12/17 16:00:25;;;;;;;134.05;55.97;;;-1.70;99.90;;;;;;5044335;28;20159;-62
2022/12/17 16:02:51;;;;;;;132.98;51.22;;;-1.20;99.90;;;;;;5059029;28;20520;-61
2022/12/17 16:05:17;;;;;;;117.68;49.78;;;-1.40;99.90;;;;;;5045190;28;20127;-63
2022/12/17 16:07:43;;;;;;;130.77;53.80;;;-1.80;99.90;;;;;;5043179;28;20037;-62
2022/12/17 16:10:10;;;;;;;126.70;53.97;;;-1.30;99.90;;;;;;5044615;28;20578;-61
2022/12/17 16:12:36;;;;;;;131.93;53.30;;;-1.70;99.90;;;;;;5045858;28;20060;-62
2022/12/17 16:15:03;;;;;;;139.30;57.22;;;-2.10;99.90;;;;;;5027161;28;20499;-62
2022/12/17 16:17:29;;;;;;;142.60;56.75;;;-2.10;99.90;;;;;;5042938;28;20075;-62
2022/12/17 16:19:54;;;;;;;132.32;49.97;;;-1.90;99.90;;;;;;5042198;28;20036;-63
2022/12/17 16:22:20;;;;;;;153.88;58.83;;;-1.60;99.90;;;;;;5043391;28;20048;-62
2022/12/17 16:24:46;;;;;;;159.70;59.20;;;-2.20;99.90;;;;;;5025891;28;20490;-62
2022/12/17 16:27:12;;;;;;;161.15;60.72;;;-1.70;99.90;;;;;;5042729;28;20079;-62
2022/12/17 16:29:38;;;;;;;159.38;54.30;;;-1.30;99.90;;;;;;5042959;28;20044;-64
2022/12/17 16:32:04;;;;;;;154.50;52.25;;;-1.20;99.90;;;;;;5043192;28;20517;-62
2022/12/17 16:34:30;;;;;;;159.93;54.58;;;-2.10;99.90;;;;;;5041989;28;20041;-62
2022/12/17 16:36:56;;;;;;;159.85;54.13;;;-1.20;99.90;;;;;;5043216;28;20049;-62
2022/12/17 16:39:21;;;;;;;159.88;52.38;;;-1.30;99.90;;;;;;5042405;28;20044;-62
2022/12/17 16:41:47;;;;;;;157.20;51.95;;;-2.30;99.90;;;;;;5043353;28;20045;-62
2022/12/17 16:44:14;;;;;;;120.10;41.10;;;-2.30;99.90;;;;;;5045654;28;20114;-62
2022/12/17 16:46:41;;;;;;;159.75;50.65;;;-1.50;99.90;;;;;;5043257;28;20115;-62
2022/12/17 16:49:14;;;;;;;144.95;48.97;;;-1.30;99.90;;;;;;5059116;28;20045;-62
2022/12/17 16:51:40;;;;;;;163.52;52.58;;;-1.30;99.90;;;;;;5043396;28;20514;-62
2022/12/17 16:54:07;;;;;;;151.45;52.13;;;-1.90;99.90;;;;;;5041846;28;20541;-62
2022/12/17 16:56:34;;;;;;;156.70;52.28;;;-2.50;99.90;;;;;;5042120;28;20068;-62
2022/12/17 16:59:03;;;;;;;146.38;48.75;;;-1.90;99.90;;;;;;5045927;28;20036;-62
2022/12/17 17:01:29;;;;;;;137.55;45.45;;;-1.70;99.90;;;;;;5042307;28;20103;-62
2022/12/17 17:03:55;;;;;;;145.57;46.95;;;-2.00;99.90;;;;;;5044256;28;20581;-64
2022/12/17 17:06:22;;;;;;;159.38;50.22;;;-2.70;99.90;;;;;;5036724;28;20079;-64
2022/12/17 17:08:48;;;;;;;132.23;41.42;;;-2.70;99.90;;;;;;5037388;28;20052;-63
2022/12/17 17:11:20;;;;;;;129.02;41.47;;;-2.50;99.90;;;;;;5017378;28;20558;-63
2022/12/17 17:13:48;;;;;;;141.52;44.00;;;-2.70;99.90;;;;;;5035391;28;20182;-63
2022/12/17 17:16:14;;;;;;;151.82;49.33;;;-1.50;99.90;;;;;;5036675;28;20528;-63
2022/12/17 17:18:40;;;;;;;142.55;43.88;;;-2.50;99.90;;;;;;5037515;28;20399;-65
2022/12/17 17:21:18;;;;;;;138.95;43.53;;;-1.80;99.90;;;;;;5035158;28;20048;-64
2022/12/17 17:23:45;;;;;;;139.80;43.63;;;-2.70;99.90;;;;;;5036271;28;20045;-64
2022/12/17 17:26:11;;;;;;;149.25;46.03;;;-2.70;99.90;;;;;;5021474;28;20116;-63
2022/12/17 17:28:37;;;;;;;153.20;47.22;;;-2.50;99.90;;;;;;5022123;28;20171;-64
2022/12/17 17:31:05;;;;;;;157.55;47.50;;;-1.60;99.90;;;;;;5041787;28;20217;-64
2022/12/17 17:33:34;;;;;;;149.15;44.75;;;-2.20;99.90;;;;;;5040835;28;20052;-63
2022/12/17 17:36:12;;;;;;;149.27;40.83;;;-2.00;99.90;;;;;;5039690;28;20471;-63
2022/12/17 17:38:39;;;;;;;138.38;39.80;;;-2.80;99.90;;;;;;5055383;28;20055;-64
2022/12/17 17:41:06;;;;;;;188.32;51.13;;;-1.80;99.90;;;;;;5023485;28;20056;-64
2022/12/17 17:43:32;;;;;;;156.07;42.08;;;-1.60;99.90;;;;;;5013611;28;20041;-62
2022/12/17 17:46:14;;;;;;;161.60;45.05;;;-2.50;99.90;;;;;;5041099;28;20045;-63
2022/12/17 17:48:41;;;;;;;131.23;38.17;;;-2.70;99.90;;;;;;5042705;28;20036;-66
2022/12/17 17:51:13;;;;;;;169.52;46.40;;;-2.90;99.90;;;;;;5039045;28;20045;-62
2022/12/17 17:53:40;;;;;;;160.98;46.80;;;-3.00;99.90;;;;;;5023989;28;20048;-63
2022/12/17 17:56:13;;;;;;;151.93;44.40;;;-2.40;99.90;;;;;;5040994;28;20048;-61
2022/12/17 17:58:41;;;;;;;;;;;-2.90;99.90;;;;;;5039616;28;20032;-62
2022/12/17 18:01:08;;;;;;;161.13;46.70;;;-2.20;99.90;;;;;;5041610;28;19931;-62
2022/12/17 18:03:34;;;;;;;135.68;38.53;;;-2.20;99.90;;;;;;5042678;28;20558;-65
2022/12/17 18:06:02;;;;;;;139.05;42.13;;;-3.10;99.90;;;;;;5041746;28;20076;-64
2022/12/17 18:08:29;;;;;;;167.82;48.50;;;-2.90;99.90;;;;;;5039421;28;20039;-63
2022/12/17 18:10:57;;;;;;;170.07;47.08;;;-2.10;99.90;;;;;;5040857;28;20048;-64
2022/12/17 18:16:11;;;;;;;171.90;47.90;;;-3.00;99.90;;;;;;5049678;28;20158;-62
2022/12/17 18:18:37;;;;;;;134.77;38.42;;;-2.00;99.90;;;;;;5028266;28;20044;-61
2022/12/17 18:21:09;;;;;;;188.73;51.72;;;-1.70;99.90;;;;;;5040376;28;20053;-63
2022/12/17 18:23:35;;;;;;;188.60;47.63;;;-1.80;99.90;;;;;;5038475;28;20045;-63
2022/12/17 18:26:09;;;;;;;193.43;50.53;;;-1.80;99.90;;;;;;5022666;28;20055;-64
2022/12/17 18:28:35;;;;;;;184.13;45.20;;;-1.70;99.90;;;;;;5038678;28;20051;-63
2022/12/17 18:31:22;;;;;;;178.32;47.33;;;-2.30;99.90;;;;;;5035092;28;20052;-64
2022/12/17 18:33:55;;;;;;;174.60;47.22;;;-2.40;99.90;;;;;;5039788;28;20348;-65
2022/12/17 18:36:27;;;;;;;200.15;52.10;;;-2.90;99.90;;;;;;5038254;28;20134;-62
2022/12/17 18:38:57;;;;;;;230.07;57.95;;;-2.80;99.90;;;;;;5021509;28;20537;-64
2022/12/17 18:44:07;;;;;;;201.30;53.15;;;-1.70;99.90;;;;;;5039453;28;20143;-64
2022/12/17 18:46:33;;;;;;;201.63;52.03;;;-2.00;99.90;;;;;;5002728;28;20081;-64
2022/12/17 18:49:05;;;;;;;170.90;47.15;;;-3.10;99.90;;;;;;5041255;28;20040;-65
2022/12/17 18:51:31;;;;;;;216.00;59.33;;;-2.40;99.90;;;;;;5040856;28;20090;-63
2022/12/17 18:53:59;;;;;;;197.00;52.00;;;-2.60;99.90;;;;;;5021308;28;20059;-64
2022/12/17 18:56:26;;;;;;;177.52;48.65;;;-3.00;99.90;;;;;;5039527;28;20095;-64
2022/12/17 18:58:53;;;;;;;234.25;64.07;;;-2.20;99.90;;;;;;5023407;28;20400;-64
2022/12/17 19:01:35;;;;;;;194.10;57.13;;;-2.60;99.90;;;;;;5034840;28;20494;-63
2022/12/17 19:04:03;;;;;;;200.57;56.03;;;-3.30;99.90;;;;;;5056375;28;21021;-64
2022/12/17 19:06:32;;;;;;;174.95;51.85;;;-3.20;99.90;;;;;;5038271;28;20138;-62
2022/12/17 19:09:02;;;;;;;178.90;52.50;;;-2.00;99.90;;;;;;5052887;28;20459;-63
2022/12/17 19:11:29;;;;;;;198.77;60.65;;;-2.90;99.90;;;;;;5039216;28;20037;-63
2022/12/17 19:13:54;;;;;;;192.65;57.78;;;-2.20;99.90;;;;;;5038925;28;20049;-63
2022/12/17 19:16:23;;;;;;;189.07;56.67;;;-3.10;99.90;;;;;;5019770;28;20344;-63
2022/12/17 19:18:58;;;;;;;166.45;54.53;;;-3.10;99.90;;;;;;5038726;28;20052;-63
2022/12/17 19:21:25;;;;;;;180.93;57.00;;;-2.60;99.90;;;;;;5040020;28;20045;-62
2022/12/17 19:23:56;;;;;;;214.43;65.93;;;-2.50;99.90;;;;;;5036440;28;20084;-63
2022/12/17 19:26:22;;;;;;;196.85;60.90;;;-2.80;99.90;;;;;;5039300;28;20115;-62
2022/12/17 19:28:49;;;;;;;191.25;61.30;;;-2.00;99.90;;;;;;5036666;28;20071;-63
2022/12/17 19:31:17;;;;;;;187.75;58.83;;;-2.50;99.90;;;;;;5038266;28;20079;-62
2022/12/17 19:33:44;;;;;;;197.57;66.85;;;-2.20;99.90;;;;;;5034262;28;20035;-62
2022/12/17 19:36:12;;;;;;;188.18;63.58;;;-2.10;99.90;;;;;;5054638;28;20227;-63
2022/12/17 19:38:39;;;;;;;182.65;64.20;;;-3.10;99.90;;;;;;5037730;28;20435;-64
2022/12/17 19:41:09;;;;;;;183.32;64.68;;;-2.30;99.90;;;;;;5037203;28;20132;-63
2022/12/17 19:43:35;;;;;;;177.25;60.05;;;-3.30;99.90;;;;;;5038581;28;20129;-62
2022/12/17 19:46:07;;;;;;;186.38;63.40;;;-3.10;99.90;;;;;;5031015;28;20136;-62
2022/12/17 19:48:34;;;;;;;180.82;62.25;;;-2.40;99.90;;;;;;5046041;28;20429;-62
2022/12/17 19:51:00;;;;;;;202.40;68.95;;;-2.10;99.90;;;;;;5043323;28;20040;-62
2022/12/17 19:53:27;;;;;;;166.60;56.20;;;-2.60;99.90;;;;;;5044498;28;20045;-62
2022/12/17 19:55:54;;;;;;;194.57;68.38;;;-2.10;99.90;;;;;;5031787;28;20059;-62
2022/12/17 19:58:21;;;;;;;209.85;73.10;;;-2.30;99.90;;;;;;5056711;28;20068;-62
2022/12/17 20:00:47;;;;;;;189.63;65.80;;;-2.40;99.90;;;;;;5048422;28;20045;-62
2022/12/17 20:03:12;;;;;;;200.20;71.00;;;-2.20;99.90;;;;;;5024598;28;20043;-63
2022/12/17 20:05:42;;;;;;;205.02;74.40;;;-3.20;99.90;;;;;;5019726;28;20090;-64
2022/12/17 20:08:08;;;;;;;179.88;69.35;;;-3.20;99.90;;;;;;5040527;28;20041;-64
2022/12/17 20:10:34;;;;;;;179.73;64.60;;;-3.10;99.90;;;;;;5037221;28;20043;-63
2022/12/17 20:12:59;;;;;;;174.60;68.50;;;-2.20;99.90;;;;;;5041715;28;20084;-63
2022/12/17 20:15:25;;;;;;;176.32;62.55;;;-3.30;99.90;;;;;;5036682;28;20052;-64
2022/12/17 20:17:51;;;;;;;169.25;66.97;;;-2.40;99.90;;;;;;5037333;28;20076;-64
2022/12/17 20:20:16;;;;;;;176.02;67.25;;;-3.10;99.90;;;;;;5064378;28;20044;-65
2022/12/17 20:22:42;;;;;;;174.30;65.78;;;-3.30;99.90;;;;;;5039024;28;20428;-64
2022/12/17 20:25:10;;;;;;;148.77;56.35;;;-2.30;99.90;;;;;;5030160;28;20041;-61
2022/12/17 20:27:38;;;;;;;210.13;72.72;;;-2.80;99.90;;;;;;5046174;28;20095;-62
2022/12/17 20:30:05;;;;;;;230.73;77.57;;;-2.20;99.90;;;;;;5044886;28;20047;-63
2022/12/17 20:32:32;;;;;;;225.02;78.38;;;-3.30;99.90;;;;;;5028970;28;20140;-61
2022/12/17 20:34:58;;;;;;;125.70;47.15;;;-2.10;99.90;;;;;;5046260;28;20037;-62
2022/12/17 20:37:24;;;;;;;164.18;61.35;;;-2.40;99.90;;;;;;5045107;28;20045;-62
2022/12/17 20:39:49;;;;;;;186.50;69.43;;;-2.60;99.90;;;;;;5043884;28;20446;-62
2022/12/17 20:42:16;;;;;;;183.73;65.18;;;-3.20;99.90;;;;;;5036818;28;20099;-63
2022/12/17 20:44:43;;;;;;;150.02;57.67;;;-2.50;99.90;;;;;;5038587;28;20641;-63
2022/12/17 20:47:09;;;;;;;178.00;64.00;;;-3.10;99.90;;;;;;5039911;28;20094;-65
2022/12/17 20:49:35;;;;;;;198.10;69.30;;;-2.70;99.90;;;;;;5038686;28;20408;-62
2022/12/17 20:52:01;;;;;;;192.93;66.78;;;-2.20;99.90;;;;;;5017723;28;20055;-63
2022/12/17 20:54:27;;;;;;;188.40;72.03;;;-2.10;99.90;;;;;;5039562;28;20053;-61
2022/12/17 20:56:52;;;;;;;188.40;69.22;;;-2.10;99.90;;;;;;5036847;28;20071;-63
2022/12/17 20:59:19;;;;;;;197.02;71.03;;;-3.40;99.90;;;;;;5021091;28;20044;-63
2022/12/17 21:01:46;;;;;;;207.93;70.70;;;-2.20;99.90;;;;;;5005177;28;20076;-66
2022/12/17 21:04:15;;;;;;;195.95;69.93;;;-2.80;99.90;;;;;;5041276;28;20048;-62
2022/12/17 21:06:43;;;;;;;199.05;65.13;;;-3.40;99.90;;;;;;5058203;28;20760;-62
2022/12/17 21:09:10;;;;;;;256.90;84.47;;;-3.10;99.90;;;;;;5028418;28;20079;-63
2022/12/17 21:11:38;;;;;;;196.65;69.20;;;-3.40;99.90;;;;;;5047460;28;20107;-63
2022/12/17 21:14:10;;;;;;;212.90;76.00;;;-3.40;99.90;;;;;;5038512;28;20048;-62
2022/12/17 21:16:37;;;;;;;200.15;74.80;;;-3.10;99.90;;;;;;5038597;28;20128;-62
2022/12/17 21:19:05;;;;;;;199.25;73.18;;;-3.50;99.90;;;;;;5023347;28;20052;-62
2022/12/17 21:21:34;;;;;;;183.68;66.10;;;-3.50;99.90;;;;;;5035980;28;20098;-63
2022/12/17 21:24:00;;;;;;;222.05;80.50;;;-2.40;99.90;;;;;;5032592;28;20041;-63
2022/12/17 21:26:31;;;;;;;213.15;71.75;;;-2.60;99.90;;;;;;5010757;28;20041;-63
2022/12/17 21:28:58;;;;;;;213.82;73.45;;;-3.50;99.90;;;;;;5022940;28;20037;-62
2022/12/17 21:31:33;;;;;;;185.75;62.78;;;-2.80;99.90;;;;;;5022095;28;20080;-62
2022/12/17 21:34:01;;;;;;;193.52;66.45;;;-2.40;99.90;;;;;;5046293;28;20494;-61
2022/12/17 21:36:28;;;;;;;206.13;73.72;;;-3.10;99.90;;;;;;5048480;28;20094;-61
2022/12/17 21:38:55;;;;;;;223.95;80.00;;;-2.90;99.90;;;;;;5045673;28;20080;-61
2022/12/17 21:41:23;;;;;;;226.32;80.88;;;-2.50;99.90;;;;;;5044972;28;20122;-62
2022/12/17 21:43:54;;;;;;;228.82;83.22;;;-3.50;99.90;;;;;;5073918;28;20048;-61
2022/12/17 21:46:19;;;;;;;225.35;82.90;;;-3.50;99.90;;;;;;5029137;28;20040;-63
2022/12/17 21:48:45;;;;;;;240.63;82.90;;;-2.80;99.90;;;;;;5028395;28;20540;-61
2022/12/17 21:51:12;;;;;;;251.07;86.07;;;-2.80;99.90;;;;;;5042638;28;20056;-65
2022/12/17 21:53:41;;;;;;;242.02;81.35;;;-3.10;99.90;;;;;;5038762;28;20627;-65
2022/12/17 21:56:17;;;;;;;235.10;76.47;;;-2.50;99.90;;;;;;5032151;28;20041;-63
2022/12/17 21:58:44;;;;;;;241.93;80.20;;;-3.20;99.90;;;;;;5038651;28;20041;-64
2022/12/17 22:01:18;;;;;;;228.35;76.72;;;-3.50;99.90;;;;;;5020266;28;20437;-63
2022/12/17 22:03:45;;;;;;;244.68;83.90;;;-2.80;99.90;;;;;;5065354;28;20041;-63
2022/12/17 22:06:13;;;;;;;254.60;84.82;;;-2.40;99.90;;;;;;5004978;28;20072;-63
2022/12/17 22:08:40;;;;;;;227.23;69.88;;;-3.30;99.90;;;;;;5037861;28;20034;-63
2022/12/17 22:11:14;;;;;;;280.63;87.32;;;-2.30;99.90;;;;;;5036723;28;20051;-62
2022/12/17 22:16:27;;;;;;;254.90;81.43;;;-2.60;99.90;;;;;;5039318;28;20044;-64
2022/12/17 22:18:53;;;;;;;264.10;81.75;;;-2.30;99.90;;;;;;5042099;28;20105;-64
2022/12/17 22:21:19;;;;;;;227.27;69.32;;;-3.40;99.90;;;;;;5039265;28;20060;-63
2022/12/17 22:23:47;;;;;;;248.30;81.70;;;-2.30;99.90;;;;;;5019737;28;20044;-64
2022/12/17 22:26:14;;;;;;;276.83;80.25;;;-2.50;99.90;;;;;;5037340;28;20047;-62
2022/12/17 22:28:42;;;;;;;248.52;72.90;;;-2.40;99.90;;;;;;5036998;28;20046;-62
2022/12/17 22:33:56;;;;;;;196.35;65.80;;;-3.30;99.90;;;;;;5039580;28;20045;-62
2022/12/17 22:36:22;;;;;;;192.60;65.65;;;-3.10;99.90;;;;;;5038841;28;20037;-62
2022/12/17 22:38:48;;;;;;;195.93;64.85;;;-3.00;99.90;;;;;;5019367;28;20279;-62
2022/12/17 22:43:28;;;;;;;196.02;66.63;;;-3.40;99.90;;;;;;5039977;28;20076;-64
2022/12/17 22:44:01;;;;;;;183.40;59.63;;;-3.50;99.90;;;;;;5067450;28;20094;-62
2022/12/17 22:46:28;;;;;;;194.00;62.10;;;-3.00;99.90;;;;;;5019627;28;20110;-63
2022/12/17 22:48:55;;;;;;;218.32;70.20;;;-3.30;99.90;;;;;;5020803;28;20066;-62
2022/12/17 22:51:20;;;;;;;195.10;57.80;;;-3.40;99.90;;;;;;5038979;28;20060;-64
2022/12/17 22:53:46;;;;;;;261.75;77.53;;;-2.60;99.90;;;;;;5020167;28;20487;-64
2022/12/17 22:56:12;;;;;;;266.52;76.40;;;-2.70;99.90;;;;;;5022704;28;20055;-63
2022/12/17 22:58:38;;;;;;;274.42;81.72;;;-2.90;99.90;;;;;;5018772;28;20809;-63
2022/12/17 23:01:04;;;;;;;255.05;77.25;;;-2.80;99.90;;;;;;5004805;28;20048;-63
2022/12/17 23:03:30;;;;;;;288.45;84.65;;;-3.30;99.90;;;;;;5021856;28;20045;-63
2022/12/17 23:06:15;;;;;;;279.23;80.63;;;-3.00;99.90;;;;;;5039820;28;20037;-62
2022/12/17 23:08:42;;;;;;;252.32;77.03;;;-3.20;99.90;;;;;;5037674;28;20765;-63
2022/12/17 23:11:11;;;;;;;267.73;78.28;;;-3.60;99.90;;;;;;5038154;28;20106;-63
2022/12/17 23:13:37;;;;;;;266.98;78.20;;;-3.10;99.90;;;;;;5037608;28;20045;-62
2022/12/17 23:16:04;;;;;;;163.88;53.67;;;-2.90;99.90;;;;;;5019488;28;20382;-63
2022/12/17 23:18:30;;;;;;;167.13;56.53;;;-2.80;99.90;;;;;;5035923;28;20441;-63
2022/12/17 23:20:56;;;;;;;209.77;70.15;;;-2.80;99.90;;;;;;5037714;28;20049;-64
2022/12/17 23:23:21;;;;;;;227.43;68.82;;;-3.50;99.90;;;;;;5043225;28;20037;-64
2022/12/17 23:25:47;;;;;;;236.95;71.82;;;-3.10;99.90;;;;;;5046684;28;20079;-62
2022/12/17 23:28:13;;;;;;;248.32;74.28;;;-3.70;99.90;;;;;;5041218;28;20036;-64
2022/12/17 23:30:39;;;;;;;224.80;65.75;;;-3.70;99.90;;;;;;5019143;28;20624;-62
2022/12/17 23:33:04;;;;;;;218.50;57.45;;;-3.80;99.90;;;;;;5037681;28;20435;-63
2022/12/17 23:35:30;;;;;;;288.65;70.43;;;-3.90;99.90;;;;;;5067378;28;20095;-63
2022/12/17 23:37:56;;;;;;;237.40;64.45;;;-3.80;99.90;;;;;;5051787;28;20210;-62
2022/12/17 23:40:22;;;;;;;260.23;69.13;;;-3.00;99.90;;;;;;5040224;28;20473;-62
2022/12/17 23:42:48;;;;;;;255.05;69.20;;;-3.60;99.90;;;;;;5046587;28;20033;-61
2022/12/17 23:45:14;;;;;;;222.38;56.50;;;-4.00;99.90;;;;;;5047073;28;20135;-62
2022/12/17 23:47:40;;;;;;;218.73;53.85;;;-3.90;99.90;;;;;;5042881;28;20136;-64
2022/12/17 23:50:08;;;;;;;287.42;74.07;;;-3.70;99.90;;;;;;5046074;28;20037;-62
2022/12/17 23:52:34;;;;;;;247.35;69.22;;;-3.20;99.90;;;;;;5044383;28;20137;-63
2022/12/17 23:54:59;;;;;;;291.73;73.20;;;-3.00;99.90;;;;;;5045620;28;20123;-62
2022/12/17 23:57:25;;;;;;;224.18;63.13;;;-4.10;99.90;;;;;;5044124;28;20080;-64
2022/12/17 23:59:51;;;;;;;273.90;70.90;;;-3.40;99.90;;;;;;5027611;28;20037;-62
